Haugen, Minnesota
Current Conditions -  °F | °C
As of 6:47 AM on Monday 22 Dec 2014 (Local Time) from KHZX Reporting Station
Overcast Overcast  
Wind Chill: 28°   Ceiling: 500
Heat Index: 34°   Visibility: 2.5mi
Dew Point: 34°   Wind: 7mph
Humidity: 100%   Direction: 140°SE
Pressure: 29.64"   Gusts: NA
Location:  46.6404°N, 93.1222°W
Report Text: KHZX 221247Z AUTO 14006KT 2 1/2SM OVC005 01/01 A2964 RMK AO2
Loading
Personal Weather Stations






























Interactive Weather Map New forecast layout! Learn more

10-Day Weather Forecast

Advertisements
Track Severe Weather on mobile